createdAt,value
2023-01-01T00:02:04.941Z,9.02
2023-01-01T00:04:32.560Z,6.63
2023-01-01T00:06:58.940Z,7.90
2023-01-01T00:09:43.962Z,6.47
2023-01-01T00:12:10.443Z,7.30
2023-01-01T00:14:36.985Z,5.38
2023-01-01T00:17:03.387Z,3.45
2023-01-01T00:19:29.767Z,5.13
2023-01-01T00:21:56.182Z,5.88
2023-01-01T00:24:22.625Z,4.87
2023-01-01T00:26:49.018Z,6.10
2023-01-01T00:29:15.371Z,5.38
2023-01-01T00:31:41.827Z,5.65
2023-01-01T00:34:09.955Z,5.25
2023-01-01T00:36:36.338Z,5.47
2023-01-01T00:39:03.664Z,6.25
2023-01-01T00:41:30.079Z,5.13
2023-01-01T00:43:56.451Z,4.85
2023-01-01T00:46:22.870Z,6.88
2023-01-01T00:48:49.246Z,6.10
2023-01-01T00:51:15.708Z,5.38
2023-01-01T00:53:42.258Z,5.65
2023-01-01T00:56:08.657Z,6.65
2023-01-01T00:58:35.128Z,6.30
2023-01-01T01:01:01.934Z,8.60
2023-01-01T01:03:28.659Z,7.10
2023-01-01T01:06:01.783Z,7.03
2023-01-01T01:08:31.321Z,8.25
2023-01-01T01:11:18.752Z,7.15
2023-01-01T01:13:47.130Z,8.30
2023-01-01T01:16:19.632Z,10.13
2023-01-01T01:18:46.827Z,10.35
2023-01-01T01:21:18.677Z,10.77
2023-01-01T01:23:45.247Z,12.77
2023-01-01T01:26:17.921Z,13.70
2023-01-01T01:28:49.354Z,13.15
2023-01-01T01:31:21.091Z,14.82
2023-01-01T01:33:48.788Z,14.38
2023-01-01T01:36:16.611Z,14.57
2023-01-01T01:38:43.427Z,15.57
2023-01-01T01:41:26.215Z,17.48
2023-01-01T01:44:24.240Z,17.80
2023-01-01T01:46:51.025Z,17.00
2023-01-01T01:49:30.456Z,15.98
2023-01-01T01:51:58.299Z,16.50
2023-01-01T01:54:27.704Z,16.88
2023-01-01T01:56:57.644Z,16.13
2023-01-01T01:59:29.665Z,15.73
2023-01-01T02:01:57.101Z,16.02
2023-01-01T02:04:23.738Z,19.57
2023-01-01T02:06:51.541Z,17.42
2023-01-01T02:09:18.407Z,14.38
2023-01-01T02:11:44.767Z,18.65
2023-01-01T02:14:11.210Z,17.42
2023-01-01T02:16:45.857Z,14.40
2023-01-01T02:19:25.534Z,16.98
2023-01-01T02:22:03.768Z,16.33
2023-01-01T02:24:43.524Z,12.80
2023-01-01T02:27:14.332Z,15.57
2023-01-01T02:30:00.829Z,14.53
2023-01-01T02:32:50.985Z,13.45
2023-01-01T02:35:35.846Z,13.57
2023-01-01T02:38:18.215Z,12.10
2023-01-01T02:40:48.888Z,13.77
2023-01-01T02:43:18.927Z,13.33
2023-01-01T02:45:48.283Z,11.52
2023-01-01T02:48:42.758Z,9.65
2023-01-01T02:51:40.040Z,11.85
2023-01-01T02:54:20.977Z,11.30
2023-01-01T02:57:03.926Z,13.07
2023-01-01T02:59:56.306Z,12.00
2023-01-01T03:02:53.072Z,13.18
2023-01-01T03:06:00.710Z,14.35
2023-01-01T03:08:45.307Z,13.90
2023-01-01T03:11:15.570Z,13.73
2023-01-01T03:14:07.037Z,14.43
2023-01-01T03:16:44.498Z,14.95
2023-01-01T03:19:30.058Z,12.90
2023-01-01T03:22:04.035Z,14.23
2023-01-01T03:24:41.130Z,15.77
2023-01-01T03:27:12.751Z,18.45
2023-01-01T03:29:41.621Z,17.42
2023-01-01T03:32:14.408Z,17.73
2023-01-01T03:34:47.411Z,16.60
2023-01-01T03:37:20.377Z,19.63
2023-01-01T03:39:57.910Z,17.70
2023-01-01T03:42:35.531Z,16.15
2023-01-01T03:45:06.750Z,19.75
2023-01-01T03:47:33.434Z,19.33
2023-01-01T03:50:00.697Z,17.83
2023-01-01T03:52:44.881Z,20.23
2023-01-01T03:55:38.313Z,22.90
2023-01-01T03:58:18.747Z,23.63
2023-01-01T04:00:55.441Z,24.42
2023-01-01T04:03:28.468Z,30.80
2023-01-01T04:05:54.952Z,26.73
2023-01-01T04:08:21.841Z,30.25
2023-01-01T04:10:56.510Z,27.65
2023-01-01T04:13:22.908Z,26.25
2023-01-01T04:15:49.982Z,26.07
2023-01-01T04:18:16.386Z,25.92
2023-01-01T04:20:42.787Z,26.33
2023-01-01T04:23:09.121Z,22.83
2023-01-01T04:25:35.639Z,23.40
2023-01-01T04:28:04.886Z,21.13
2023-01-01T04:30:31.289Z,18.05
2023-01-01T04:32:57.657Z,17.08
2023-01-01T04:35:24.096Z,14.75
2023-01-01T04:37:50.558Z,12.75
2023-01-01T04:40:17.045Z,7.00
2023-01-01T04:42:43.543Z,8.82
2023-01-01T04:45:12.360Z,7.55
2023-01-01T04:47:38.933Z,5.32
2023-01-01T04:50:05.934Z,6.65
2023-01-01T04:52:32.286Z,5.73
2023-01-01T04:54:58.638Z,5.30
2023-01-01T04:57:25.005Z,4.85
2023-01-01T04:59:51.392Z,5.05
2023-01-01T05:02:17.855Z,5.00
2023-01-01T05:04:44.361Z,4.73
2023-01-01T05:07:10.757Z,5.30
2023-01-01T05:09:37.429Z,5.50
2023-01-01T05:12:03.846Z,5.90
2023-01-01T05:14:30.224Z,5.22
2023-01-01T05:16:56.594Z,5.67
2023-01-01T05:19:23.127Z,5.53
2023-01-01T05:21:49.624Z,4.80
2023-01-01T05:24:16.012Z,6.53
2023-01-01T05:26:44.375Z,5.18
2023-01-01T05:29:16.096Z,5.47
2023-01-01T05:31:43.703Z,4.95
2023-01-01T05:34:10.172Z,5.95
2023-01-01T05:36:38.985Z,4.32
2023-01-01T05:39:07.045Z,5.97
2023-01-01T05:41:36.180Z,6.80
2023-01-01T05:44:03.840Z,4.68
2023-01-01T05:46:30.185Z,4.90
2023-01-01T05:48:56.539Z,6.40
2023-01-01T05:51:25.101Z,4.75
2023-01-01T05:53:52.960Z,5.20
2023-01-01T05:56:19.398Z,4.18
2023-01-01T05:58:46.115Z,4.43
2023-01-01T06:01:20.418Z,4.72
2023-01-01T06:03:50.003Z,4.80
2023-01-01T06:06:19.417Z,3.57
2023-01-01T06:09:05.074Z,4.45
2023-01-01T06:11:32.033Z,4.63
2023-01-01T06:14:00.049Z,8.00
2023-01-01T06:16:27.845Z,5.05
2023-01-01T06:18:54.480Z,7.70
2023-01-01T06:21:23.452Z,5.28
2023-01-01T06:23:50.501Z,4.28
2023-01-01T06:26:19.502Z,4.05
2023-01-01T06:28:47.125Z,4.32
2023-01-01T06:31:16.519Z,6.13
2023-01-01T06:33:43.838Z,4.65
2023-01-01T06:36:12.642Z,5.22
2023-01-01T06:38:41.851Z,5.32
2023-01-01T06:41:12.320Z,4.63
2023-01-01T06:43:38.882Z,5.80
2023-01-01T06:46:14.464Z,3.75
2023-01-01T06:48:40.826Z,4.82
2023-01-01T06:51:13.027Z,7.15
2023-01-01T06:53:39.424Z,6.82
2023-01-01T06:56:06.444Z,6.10
2023-01-01T06:58:33.248Z,4.25
2023-01-01T07:01:20.853Z,8.80
2023-01-01T07:03:55.906Z,4.72
2023-01-01T07:06:23.547Z,6.43
2023-01-01T07:08:50.553Z,4.63
2023-01-01T07:11:17.029Z,5.18
2023-01-01T07:13:43.406Z,4.75
2023-01-01T07:16:13.182Z,7.53
2023-01-01T07:18:40.070Z,5.43
2023-01-01T07:21:28.252Z,7.20
2023-01-01T07:23:56.347Z,7.25
2023-01-01T07:26:26.624Z,6.13
2023-01-01T07:28:53.621Z,8.50
2023-01-01T07:31:20.111Z,6.40
2023-01-01T07:33:46.561Z,7.97
2023-01-01T07:36:13.091Z,6.15
2023-01-01T07:38:39.452Z,6.10
2023-01-01T07:41:06.146Z,6.30
2023-01-01T07:43:32.506Z,6.00
2023-01-01T07:45:59.641Z,4.75
2023-01-01T07:48:26.831Z,7.25
2023-01-01T07:50:53.185Z,5.28
2023-01-01T07:53:19.632Z,5.05
2023-01-01T07:55:46.121Z,4.27
2023-01-01T07:58:13.136Z,4.90
2023-01-01T08:00:40.271Z,6.85
2023-01-01T08:03:07.963Z,5.38
2023-01-01T08:05:35.764Z,5.55
2023-01-01T08:08:02.127Z,4.80
2023-01-01T08:10:28.470Z,5.20
2023-01-01T08:13:03.390Z,6.18
2023-01-01T08:15:30.182Z,7.25
2023-01-01T08:18:00.779Z,7.20
2023-01-01T08:20:29.093Z,5.50
2023-01-01T08:22:56.169Z,4.95
2023-01-01T08:25:24.437Z,5.50
2023-01-01T08:27:50.802Z,5.32
2023-01-01T08:30:17.583Z,6.60
2023-01-01T08:32:44.099Z,5.07
2023-01-01T08:35:10.459Z,4.57
2023-01-01T08:37:36.802Z,4.32
2023-01-01T08:40:03.614Z,5.68
2023-01-01T08:42:30.021Z,3.47
2023-01-01T08:44:56.361Z,4.50
2023-01-01T08:47:25.538Z,4.63
2023-01-01T08:49:53.494Z,7.00
2023-01-01T08:52:20.630Z,5.15
2023-01-01T08:54:46.997Z,3.17
2023-01-01T08:57:13.447Z,4.20
2023-01-01T08:59:39.861Z,5.18
2023-01-01T09:02:06.771Z,5.88
2023-01-01T09:04:33.986Z,5.60
2023-01-01T09:07:00.393Z,5.55
2023-01-01T09:09:31.312Z,4.37
2023-01-01T09:12:01.704Z,4.78
2023-01-01T09:14:28.073Z,5.45
2023-01-01T09:16:54.407Z,5.28
2023-01-01T09:19:20.783Z,5.20
2023-01-01T09:21:47.151Z,6.07
2023-01-01T09:24:13.556Z,4.82
2023-01-01T09:26:39.983Z,5.22
2023-01-01T09:29:06.318Z,7.90
2023-01-01T09:31:32.738Z,7.38
2023-01-01T09:33:59.171Z,4.47
2023-01-01T09:36:31.459Z,4.28
2023-01-01T09:38:58.977Z,4.75
2023-01-01T09:41:25.264Z,6.35
2023-01-01T09:44:09.576Z,6.50
2023-01-01T09:46:36.687Z,4.27
2023-01-01T09:49:09.830Z,5.43
2023-01-01T09:51:43.227Z,4.60
2023-01-01T09:54:37.537Z,6.70
2023-01-01T09:57:14.857Z,3.67
2023-01-01T09:59:44.944Z,4.37
2023-01-01T10:02:31.168Z,4.38
2023-01-01T10:05:15.142Z,6.20
2023-01-01T10:07:50.515Z,4.03
2023-01-01T10:10:35.274Z,6.40
2023-01-01T10:13:25.267Z,4.60
2023-01-01T10:16:09.360Z,7.28
2023-01-01T10:18:38.791Z,4.72
2023-01-01T10:21:13.005Z,5.30
2023-01-01T10:23:46.342Z,3.85
2023-01-01T10:26:17.014Z,4.63
2023-01-01T10:28:51.972Z,6.90
2023-01-01T10:31:31.462Z,5.88
2023-01-01T10:33:58.106Z,5.43
2023-01-01T10:36:26.140Z,4.38
2023-01-01T10:38:52.734Z,7.43
2023-01-01T10:41:20.110Z,6.65
2023-01-01T10:43:48.223Z,4.78
2023-01-01T10:46:27.644Z,5.75
2023-01-01T10:49:07.076Z,7.75
2023-01-01T10:51:37.066Z,5.07
2023-01-01T10:54:03.804Z,5.68
2023-01-01T10:56:40.943Z,6.63
2023-01-01T10:59:34.634Z,6.25
2023-01-01T11:02:15.592Z,8.13
2023-01-01T11:04:42.109Z,5.20
2023-01-01T11:07:08.659Z,5.55
2023-01-01T11:09:39.469Z,5.82
2023-01-01T11:12:46.185Z,5.55
2023-01-01T11:15:02.685Z,7.32
2023-01-01T11:17:31.380Z,5.00
2023-01-01T11:20:02.033Z,6.70
2023-01-01T11:22:40.116Z,5.95
2023-01-01T11:25:30.041Z,6.72
2023-01-01T11:28:20.995Z,5.13
2023-01-01T11:31:01.323Z,4.43
2023-01-01T11:33:31.690Z,6.97
2023-01-01T11:35:58.319Z,7.63
2023-01-01T11:38:29.789Z,7.43
2023-01-01T11:41:03.697Z,8.55
2023-01-01T11:43:37.089Z,5.67
2023-01-01T11:46:08.584Z,7.65
2023-01-01T11:48:36.150Z,6.43
2023-01-01T11:51:06.096Z,10.20
2023-01-01T11:53:35.432Z,8.10
2023-01-01T11:56:01.733Z,6.90
2023-01-01T11:58:37.131Z,7.68
2023-01-01T12:01:28.090Z,7.72
2023-01-01T12:04:11.382Z,7.95
2023-01-01T12:07:06.429Z,7.65
2023-01-01T12:09:43.382Z,7.93
2023-01-01T12:12:34.572Z,6.55
2023-01-01T12:15:28.735Z,7.20
2023-01-01T12:18:04.553Z,7.47
2023-01-01T12:20:48.041Z,6.68
2023-01-01T12:23:16.873Z,6.83
2023-01-01T12:25:48.631Z,7.88
2023-01-01T12:28:41.555Z,8.25
2023-01-01T12:31:23.254Z,5.50
2023-01-01T12:34:01.804Z,6.95
2023-01-01T12:36:56.741Z,5.27
2023-01-01T12:40:00.599Z,7.20
2023-01-01T12:42:44.032Z,7.90
2023-01-01T12:45:13.353Z,7.20
2023-01-01T12:48:00.138Z,4.90
2023-01-01T12:50:41.956Z,6.10
2023-01-01T12:53:22.755Z,8.45
2023-01-01T12:56:20.854Z,4.53
2023-01-01T12:58:58.684Z,9.60
2023-01-01T13:01:33.336Z,6.32
2023-01-01T13:04:02.285Z,7.43
2023-01-01T13:06:36.781Z,5.85
2023-01-01T13:09:17.843Z,6.15
2023-01-01T13:11:47.738Z,7.93
2023-01-01T13:14:14.441Z,18.55
2023-01-01T13:16:43.615Z,8.17
2023-01-01T13:19:40.777Z,7.63
2023-01-01T13:22:25.254Z,9.40
2023-01-01T13:25:13.819Z,8.55
2023-01-01T13:27:55.261Z,8.38
2023-01-01T13:30:41.573Z,7.37
2023-01-01T13:33:11.029Z,7.85
2023-01-01T13:35:37.413Z,8.02
2023-01-01T13:38:03.769Z,6.38
2023-01-01T13:40:34.006Z,7.90
2023-01-01T13:43:04.490Z,5.40
2023-01-01T13:46:11.207Z,11.32
2023-01-01T13:49:02.102Z,8.60
2023-01-01T13:52:08.160Z,8.80
2023-01-01T13:54:59.720Z,10.27
2023-01-01T13:57:47.813Z,7.83
2023-01-01T14:00:53.583Z,5.50
2023-01-01T14:03:20.705Z,7.93
2023-01-01T14:06:02.228Z,8.63
2023-01-01T14:08:35.115Z,9.30
2023-01-01T14:11:03.441Z,6.53
2023-01-01T14:13:32.415Z,6.65
2023-01-01T14:16:03.312Z,7.13
2023-01-01T14:18:40.395Z,7.60
2023-01-01T14:21:13.227Z,6.10
2023-01-01T14:23:43.179Z,8.63
2023-01-01T14:26:13.642Z,6.68
2023-01-01T14:28:40.608Z,6.72
2023-01-01T14:31:15.195Z,7.43
2023-01-01T14:33:41.672Z,7.88
2023-01-01T14:36:19.933Z,6.67
2023-01-01T14:38:48.523Z,8.55
2023-01-01T14:41:39.621Z,10.73
2023-01-01T14:44:15.019Z,8.45
2023-01-01T14:46:45.309Z,7.82
2023-01-01T14:49:17.557Z,7.33
2023-01-01T14:51:46.994Z,8.88
2023-01-01T14:54:18.526Z,5.72
2023-01-01T14:56:48.540Z,8.45
2023-01-01T14:59:17.847Z,7.90
2023-01-01T15:01:44.289Z,8.47
2023-01-01T15:04:23.481Z,7.22
2023-01-01T15:06:54.895Z,8.93
2023-01-01T15:09:21.445Z,7.35
2023-01-01T15:11:47.977Z,7.32
2023-01-01T15:14:38.325Z,7.93
2023-01-01T15:17:07.342Z,6.53
2023-01-01T15:19:35.331Z,7.88
2023-01-01T15:22:08.141Z,8.07
2023-01-01T15:24:37.733Z,8.90
2023-01-01T15:27:06.656Z,9.23
2023-01-01T15:29:39.015Z,8.10
2023-01-01T15:32:09.430Z,10.23
2023-01-01T15:34:57.396Z,7.95
2023-01-01T15:37:41.674Z,6.97
2023-01-01T15:40:13.849Z,8.00
2023-01-01T15:43:20.760Z,7.45
2023-01-01T15:45:55.481Z,9.57
2023-01-01T15:48:29.668Z,11.70
2023-01-01T15:51:03.406Z,7.00
2023-01-01T15:53:39.250Z,8.93
2023-01-01T15:56:10.914Z,12.45
2023-01-01T15:58:55.306Z,9.73
2023-01-01T16:01:24.465Z,7.13
2023-01-01T16:03:54.814Z,8.50
2023-01-01T16:06:22.065Z,7.43
2023-01-01T16:08:48.735Z,8.00
2023-01-01T16:11:15.218Z,7.88
2023-01-01T16:13:42.051Z,6.15
2023-01-01T16:16:24.652Z,7.65
2023-01-01T16:18:51.632Z,5.43
2023-01-01T16:21:18.613Z,6.97
2023-01-01T16:23:44.967Z,8.57
2023-01-01T16:26:11.353Z,6.57
2023-01-01T16:28:37.684Z,7.75
2023-01-01T16:31:04.262Z,7.97
2023-01-01T16:33:30.687Z,8.63
2023-01-01T16:35:57.082Z,5.95
2023-01-01T16:38:23.429Z,6.30
2023-01-01T16:40:51.350Z,8.30
2023-01-01T16:43:18.534Z,7.07
2023-01-01T16:45:45.116Z,9.40
2023-01-01T16:48:11.566Z,8.18
2023-01-01T16:50:37.919Z,6.85
2023-01-01T16:53:04.277Z,8.25
2023-01-01T16:55:30.653Z,9.10
2023-01-01T16:58:21.194Z,9.85
2023-01-01T17:00:43.406Z,11.88
2023-01-01T17:03:09.830Z,10.57
2023-01-01T17:05:42.196Z,11.25
2023-01-01T17:08:10.589Z,11.83
2023-01-01T17:10:36.928Z,9.32
2023-01-01T17:13:03.816Z,8.43
2023-01-01T17:15:31.604Z,9.45
2023-01-01T17:17:58.468Z,11.82
2023-01-01T17:20:25.996Z,8.00
2023-01-01T17:22:52.567Z,11.48
2023-01-01T17:25:18.986Z,8.52
2023-01-01T17:27:45.482Z,8.25
2023-01-01T17:30:12.865Z,8.00
2023-01-01T17:32:39.250Z,9.97
2023-01-01T17:35:06.342Z,12.05
2023-01-01T17:37:33.440Z,10.95
2023-01-01T17:40:00.303Z,15.93
2023-01-01T17:42:26.754Z,13.70
2023-01-01T17:44:53.098Z,11.80
2023-01-01T17:47:19.451Z,10.05
2023-01-01T17:49:45.855Z,10.90
2023-01-01T17:52:12.211Z,11.00
2023-01-01T17:54:38.570Z,10.48
2023-01-01T17:57:05.000Z,12.30
2023-01-01T17:59:32.301Z,12.35
2023-01-01T18:02:00.111Z,12.43
2023-01-01T18:04:27.221Z,12.43
2023-01-01T18:06:55.458Z,10.65
2023-01-01T18:09:25.146Z,10.50
2023-01-01T18:11:51.512Z,9.25
2023-01-01T18:14:22.612Z,9.02
2023-01-01T18:16:51.129Z,7.70
2023-01-01T18:19:17.489Z,8.70
2023-01-01T18:21:43.862Z,7.87
2023-01-01T18:24:15.184Z,8.68
2023-01-01T18:26:42.192Z,9.98
2023-01-01T18:29:08.548Z,6.80
2023-01-01T18:31:35.468Z,5.60
2023-01-01T18:34:04.119Z,7.73
2023-01-01T18:36:33.219Z,9.38
2023-01-01T18:39:15.254Z,7.40
2023-01-01T18:42:07.362Z,8.00
2023-01-01T18:44:34.694Z,7.22
2023-01-01T18:47:03.864Z,6.77
2023-01-01T18:49:30.829Z,8.07
2023-01-01T18:52:06.036Z,5.57
2023-01-01T18:54:33.575Z,8.98
2023-01-01T18:57:27.043Z,9.50
2023-01-01T18:59:59.024Z,8.43
2023-01-01T19:02:38.125Z,9.35
2023-01-01T19:05:24.584Z,9.13
2023-01-01T19:08:19.127Z,8.15
2023-01-01T19:10:47.368Z,11.15
2023-01-01T19:13:19.632Z,8.47
2023-01-01T19:15:49.386Z,11.13
2023-01-01T19:18:22.478Z,8.18
2023-01-01T19:20:52.706Z,10.25
2023-01-01T19:23:24.439Z,8.50
2023-01-01T19:25:52.156Z,11.63
2023-01-01T19:28:18.519Z,13.63
2023-01-01T19:30:45.379Z,11.35
2023-01-01T19:33:12.707Z,8.20
2023-01-01T19:35:39.092Z,8.88
2023-01-01T19:38:05.620Z,8.23
2023-01-01T19:40:32.165Z,9.50
2023-01-01T19:42:58.506Z,7.72
2023-01-01T19:45:24.910Z,8.93
2023-01-01T19:47:51.265Z,9.02
2023-01-01T19:50:17.748Z,5.87
2023-01-01T19:52:44.783Z,7.53
2023-01-01T19:55:11.136Z,8.73
2023-01-01T19:57:37.487Z,7.88
2023-01-01T20:00:04.545Z,8.23
2023-01-01T20:02:47.773Z,7.83
2023-01-01T20:05:15.132Z,6.78
2023-01-01T20:07:41.743Z,7.25
2023-01-01T20:10:08.538Z,6.78
2023-01-01T20:12:34.882Z,5.55
2023-01-01T20:15:01.238Z,9.03
2023-01-01T20:17:27.598Z,7.43
2023-01-01T20:19:54.745Z,5.68
2023-01-01T20:22:21.933Z,5.60
2023-01-01T20:24:48.495Z,7.25
2023-01-01T20:27:23.148Z,5.93
2023-01-01T20:29:49.961Z,8.52
2023-01-01T20:32:16.959Z,6.72
2023-01-01T20:34:43.476Z,8.75
2023-01-01T20:37:28.546Z,6.97
2023-01-01T20:39:54.915Z,6.90
2023-01-01T20:42:21.308Z,5.78
2023-01-01T20:44:47.661Z,7.15
2023-01-01T20:47:14.800Z,5.60
2023-01-01T20:49:41.921Z,7.05
2023-01-01T20:52:09.018Z,12.07
2023-01-01T20:54:35.691Z,8.02
2023-01-01T20:57:02.155Z,7.90
2023-01-01T20:59:37.810Z,4.88
2023-01-01T21:02:07.448Z,7.55
2023-01-01T21:04:38.214Z,8.03
2023-01-01T21:07:08.547Z,6.43
2023-01-01T21:09:35.009Z,8.65
2023-01-01T21:12:02.008Z,6.45
2023-01-01T21:14:28.708Z,8.77
2023-01-01T21:16:55.155Z,8.87
2023-01-01T21:19:26.572Z,6.70
2023-01-01T21:21:55.611Z,10.68
2023-01-01T21:24:26.033Z,7.25
2023-01-01T21:26:56.874Z,9.90
2023-01-01T21:29:25.340Z,5.17
2023-01-01T21:31:57.701Z,8.30
2023-01-01T21:34:26.319Z,7.22
2023-01-01T21:37:00.766Z,9.55
2023-01-01T21:39:29.492Z,5.72
2023-01-01T21:42:22.061Z,8.57
2023-01-01T21:44:50.700Z,6.82
2023-01-01T21:47:23.342Z,7.85
2023-01-01T21:49:52.498Z,7.07
2023-01-01T21:52:22.510Z,6.90
2023-01-01T21:54:48.932Z,5.63
2023-01-01T21:57:18.787Z,7.03
2023-01-01T21:59:46.745Z,7.65
2023-01-01T22:02:13.103Z,6.88
2023-01-01T22:04:42.285Z,7.20
2023-01-01T22:10:16.242Z,6.90
2023-01-01T22:12:43.088Z,6.22
2023-01-01T22:15:41.234Z,12.02
2023-01-01T22:18:07.527Z,7.60
2023-01-01T22:20:37.051Z,6.83
2023-01-01T22:23:13.308Z,6.57
2023-01-01T22:25:39.653Z,8.23
2023-01-01T22:28:19.072Z,8.82
2023-01-01T22:30:45.542Z,5.72
2023-01-01T22:33:17.627Z,8.67
2023-01-01T22:35:44.730Z,6.53
2023-01-01T22:38:22.303Z,7.20
2023-01-01T22:40:50.498Z,8.50
2023-01-01T22:43:22.660Z,5.78
2023-01-01T22:45:49.827Z,7.23
2023-01-01T22:48:34.966Z,7.47
2023-01-01T22:51:05.370Z,9.98
2023-01-01T22:53:31.725Z,4.60
2023-01-01T22:55:58.113Z,10.57
2023-01-01T22:58:24.489Z,6.20
2023-01-01T23:00:50.840Z,5.95
2023-01-01T23:03:17.236Z,5.38
2023-01-01T23:05:43.853Z,6.70
2023-01-01T23:08:10.464Z,7.35
2023-01-01T23:10:36.806Z,5.23
2023-01-01T23:13:23.162Z,6.55
2023-01-01T23:16:02.296Z,10.15
2023-01-01T23:18:31.588Z,5.57
2023-01-01T23:20:58.713Z,4.90
2023-01-01T23:23:25.983Z,6.23
2023-01-01T23:25:52.462Z,7.05
2023-01-01T23:28:19.289Z,12.85
2023-01-01T23:30:45.881Z,8.20
2023-01-01T23:33:12.541Z,7.20
2023-01-01T23:35:39.579Z,8.00
2023-01-01T23:38:06.141Z,9.15
2023-01-01T23:40:32.481Z,7.10
2023-01-01T23:42:59.242Z,7.35
2023-01-01T23:45:25.775Z,6.60
2023-01-01T23:47:53.087Z,4.63
2023-01-01T23:50:19.538Z,9.63
2023-01-01T23:52:45.983Z,7.53
2023-01-01T23:55:12.346Z,8.82
2023-01-01T23:57:38.753Z,5.70
